Aviation Digital Data Service (ADDS)

Output produced by TAFs form (2344 UTC 18 July 2018)
found at http://www.aviationweather.gov/adds/tafs/
 
ROIG 182300Z 05012KT 9999 FEW010 SCT018 29/27 Q1006
TAF ROIG 182308Z 1900/2006 05012KT 9999 FEW015 SCT025